createdAt,value
2019-01-23T00:01:15.145Z,100063.89
2019-01-23T00:03:44.637Z,100072.44
2019-01-23T00:06:14.142Z,100064.46
2019-01-23T00:08:43.679Z,100064.35
2019-01-23T00:11:13.177Z,100070.90
2019-01-23T00:13:42.703Z,100066.70
2019-01-23T00:16:12.245Z,100063.16
2019-01-23T00:18:41.763Z,100051.80
2019-01-23T00:21:11.255Z,100055.34
2019-01-23T00:23:40.977Z,100057.63
2019-01-23T00:26:10.462Z,100062.25
2019-01-23T00:28:42.419Z,100053.81
2019-01-23T00:31:11.199Z,100054.18
2019-01-23T00:33:40.876Z,100056.89
2019-01-23T00:36:10.367Z,100053.75
2019-01-23T00:38:39.908Z,100052.64
2019-01-23T00:41:09.437Z,100041.25
2019-01-23T00:43:38.933Z,100040.69
2019-01-23T00:46:08.684Z,100045.36
2019-01-23T00:48:38.178Z,100044.52
2019-01-23T00:51:07.713Z,100042.07
2019-01-23T00:53:37.219Z,100040.63
2019-01-23T00:56:06.746Z,100044.40
2019-01-23T00:58:36.250Z,100043.61
2019-01-23T01:01:07.633Z,100045.66
2019-01-23T01:03:37.712Z,100041.75
2019-01-23T01:06:07.246Z,100030.52
2019-01-23T01:08:36.834Z,100042.70
2019-01-23T01:11:06.326Z,100037.06
2019-01-23T01:13:35.802Z,100039.56
2019-01-23T01:16:05.722Z,100027.49
2019-01-23T01:18:35.229Z,100035.33
2019-01-23T01:21:04.792Z,100037.02
2019-01-23T01:23:34.282Z,100035.43
2019-01-23T01:26:03.785Z,100029.85
2019-01-23T01:28:33.263Z,100032.80
2019-01-23T01:31:03.304Z,100030.09
2019-01-23T01:33:34.015Z,100028.73
2019-01-23T01:36:04.145Z,100028.19
2019-01-23T01:38:33.681Z,100031.36
2019-01-23T01:41:03.185Z,100021.45
2019-01-23T01:43:32.694Z,100030.59
2019-01-23T01:46:02.203Z,100026.38
2019-01-23T01:48:32.147Z,100030.70
2019-01-23T01:51:01.600Z,100023.63
2019-01-23T01:53:31.467Z,100025.26
2019-01-23T01:56:01.041Z,100024.25
2019-01-23T01:58:30.505Z,100015.54
2019-01-23T02:01:00.037Z,100021.94
2019-01-23T02:03:30.371Z,100023.44
2019-01-23T02:06:00.222Z,100013.19
2019-01-23T02:08:29.762Z,100019.27
2019-01-23T02:10:59.237Z,100012.13
2019-01-23T02:13:28.776Z,100018.73
2019-01-23T02:15:58.881Z,100014.41
2019-01-23T02:18:28.347Z,100003.13
2019-01-23T02:20:58.368Z,100002.83
2019-01-23T02:23:27.907Z,100009.11
2019-01-23T02:25:57.487Z,100005.43
2019-01-23T02:28:26.967Z,99998.61
2019-01-23T02:30:56.481Z,100002.75
2019-01-23T02:33:25.960Z,100006.26
2019-01-23T02:35:55.440Z,100005.81
2019-01-23T02:38:25.002Z,100000.31
2019-01-23T02:40:54.507Z,99996.09
2019-01-23T02:43:24.001Z,99998.30
2019-01-23T02:45:53.535Z,99993.10
2019-01-23T02:48:23.050Z,99990.88
2019-01-23T02:50:52.523Z,99987.13
2019-01-23T02:53:22.091Z,99987.41
2019-01-23T02:55:51.575Z,99989.21
2019-01-23T02:58:21.043Z,99990.06
2019-01-23T03:00:50.684Z,99992.14
2019-01-23T03:03:20.168Z,99993.31
2019-01-23T03:05:49.702Z,99997.74
2019-01-23T03:08:19.193Z,99998.02
2019-01-23T03:10:48.682Z,99993.69
2019-01-23T03:13:18.197Z,99985.95
2019-01-23T03:15:47.711Z,99989.16
2019-01-23T03:18:17.613Z,99984.32
2019-01-23T03:20:47.082Z,99993.77
2019-01-23T03:23:17.995Z,99987.44
2019-01-23T03:25:47.477Z,99989.30
2019-01-23T03:28:16.989Z,99991.75
2019-01-23T03:30:47.399Z,99987.38
2019-01-23T03:33:16.892Z,99984.53
2019-01-23T03:35:46.384Z,99987.48
2019-01-23T03:38:15.886Z,99985.70
2019-01-23T03:40:45.388Z,99986.50
2019-01-23T03:43:14.923Z,99979.21
2019-01-23T03:45:44.670Z,99982.02
2019-01-23T03:48:14.167Z,99983.31
2019-01-23T03:50:43.677Z,99995.48
2019-01-23T03:53:13.234Z,99992.38
2019-01-23T03:55:42.778Z,99997.22
2019-01-23T03:58:12.298Z,100001.16
2019-01-23T04:00:41.876Z,99999.17
2019-01-23T04:03:11.377Z,100001.77
2019-01-23T04:05:40.886Z,100007.84
2019-01-23T04:08:10.674Z,100007.56
2019-01-23T04:10:40.190Z,100010.23
2019-01-23T04:13:09.723Z,100015.34
2019-01-23T04:15:39.320Z,100012.76
2019-01-23T04:18:08.822Z,100016.16
2019-01-23T04:20:38.302Z,100014.25
2019-01-23T04:23:07.822Z,100018.71
2019-01-23T04:25:37.346Z,100014.63
2019-01-23T04:28:06.911Z,100015.93
2019-01-23T04:30:36.900Z,100011.80
2019-01-23T04:33:06.427Z,100003.86
2019-01-23T04:35:35.907Z,100012.09
2019-01-23T04:38:05.488Z,100015.83
2019-01-23T04:40:34.972Z,100014.95
2019-01-23T04:43:04.550Z,100011.73
2019-01-23T04:45:34.051Z,100008.59
2019-01-23T04:48:03.564Z,100011.48
2019-01-23T04:50:34.673Z,100011.01
2019-01-23T04:53:12.499Z,100013.19
2019-01-23T04:55:42.005Z,100009.41
2019-01-23T04:58:11.507Z,100008.65
2019-01-23T05:00:40.987Z,100015.17
2019-01-23T05:03:10.474Z,100014.41
2019-01-23T05:05:39.975Z,100018.28
2019-01-23T05:08:09.996Z,100014.79
2019-01-23T05:10:39.490Z,100018.00
2019-01-23T05:13:09.069Z,100016.97
2019-01-23T05:15:39.043Z,100015.17
2019-01-23T05:18:08.541Z,100019.59
2019-01-23T05:20:38.044Z,100015.45
2019-01-23T05:23:07.604Z,100017.14
2019-01-23T05:25:37.115Z,100022.34
2019-01-23T05:28:06.653Z,100024.30
2019-01-23T05:30:36.211Z,100025.09
2019-01-23T05:33:05.677Z,100019.41
2019-01-23T05:35:35.179Z,100022.83
2019-01-23T05:38:05.120Z,100019.98
2019-01-23T05:40:34.626Z,100020.94
2019-01-23T05:43:04.640Z,100022.05
2019-01-23T05:45:34.153Z,100026.03
2019-01-23T05:48:03.628Z,100025.34
2019-01-23T05:50:33.119Z,100023.76
2019-01-23T05:53:02.668Z,100017.61
2019-01-23T05:55:32.133Z,100029.95
2019-01-23T05:58:01.643Z,100018.79
2019-01-23T06:00:31.203Z,100022.53
2019-01-23T06:03:00.713Z,100024.95
2019-01-23T06:05:30.259Z,100020.25
2019-01-23T06:07:59.801Z,100029.88
2019-01-23T06:10:48.846Z,100025.92
2019-01-23T06:13:18.387Z,100023.55
2019-01-23T06:15:47.874Z,100028.48
2019-01-23T06:18:17.378Z,100030.27
2019-01-23T06:20:46.961Z,100036.66
2019-01-23T06:23:17.514Z,100032.55
2019-01-23T06:25:48.491Z,100033.93
2019-01-23T06:28:18.014Z,100033.58
2019-01-23T06:30:47.487Z,100032.05
2019-01-23T06:33:17.082Z,100033.55
2019-01-23T06:35:46.577Z,100032.79
2019-01-23T06:38:16.391Z,100030.70
2019-01-23T06:40:45.899Z,100027.60
2019-01-23T06:43:15.495Z,100044.49
2019-01-23T06:45:45.324Z,100045.62
2019-01-23T06:48:14.870Z,100044.14
2019-01-23T06:50:44.405Z,100045.66
2019-01-23T06:53:14.354Z,100050.08
2019-01-23T06:55:43.983Z,100049.33
2019-01-23T06:58:13.546Z,100048.44
2019-01-23T07:00:43.061Z,100050.66
2019-01-23T07:03:12.643Z,100051.68
2019-01-23T07:05:42.377Z,100049.56
2019-01-23T07:08:11.945Z,100055.48
2019-01-23T07:10:41.423Z,100052.66
2019-01-23T07:13:10.941Z,100054.66
2019-01-23T07:15:40.437Z,100045.52
2019-01-23T07:18:09.963Z,100055.06
2019-01-23T07:20:39.499Z,100053.83
2019-01-23T07:23:08.967Z,100054.37
2019-01-23T07:25:38.472Z,100057.97
2019-01-23T07:28:08.206Z,100056.66
2019-01-23T07:30:39.141Z,100055.91
2019-01-23T07:33:09.091Z,100055.34
2019-01-23T07:35:38.616Z,100059.12
2019-01-23T07:38:08.158Z,100069.05
2019-01-23T07:40:37.685Z,100073.69
2019-01-23T07:43:07.217Z,100074.05
2019-01-23T07:45:36.724Z,100080.86
2019-01-23T07:48:06.234Z,100075.16
2019-01-23T07:50:36.264Z,100077.64
2019-01-23T07:53:06.179Z,100077.75
2019-01-23T07:55:35.689Z,100076.81
2019-01-23T07:58:05.280Z,100080.67
2019-01-23T08:00:34.752Z,100083.88
2019-01-23T08:03:04.311Z,100086.55
2019-01-23T08:05:33.820Z,100085.41
2019-01-23T08:08:03.388Z,100081.41
2019-01-23T08:10:32.920Z,100078.60
2019-01-23T08:13:02.706Z,100078.48
2019-01-23T08:15:34.835Z,100085.06
2019-01-23T08:18:05.088Z,100086.88
2019-01-23T08:20:35.971Z,100090.02
2019-01-23T08:23:05.601Z,100091.29
2019-01-23T08:25:35.107Z,100095.04
2019-01-23T08:28:05.619Z,100091.37
2019-01-23T08:30:38.895Z,100087.59
2019-01-23T08:33:06.385Z,100088.00
2019-01-23T08:35:36.166Z,100090.97
2019-01-23T08:38:07.220Z,100085.93
2019-01-23T08:40:37.009Z,100083.23
2019-01-23T08:43:06.973Z,100079.04
2019-01-23T08:45:36.947Z,100076.91
2019-01-23T08:48:06.491Z,100085.86
2019-01-23T08:50:39.824Z,100084.33
2019-01-23T08:53:09.392Z,100092.42
2019-01-23T08:55:38.953Z,100093.41
2019-01-23T08:58:08.842Z,100092.21
2019-01-23T09:00:38.316Z,100104.29
2019-01-23T09:03:08.007Z,100101.63
2019-01-23T09:05:37.580Z,100110.93
2019-01-23T09:08:07.581Z,100107.89
2019-01-23T09:10:37.068Z,100114.44
2019-01-23T09:13:06.601Z,100105.70
2019-01-23T09:15:36.096Z,100108.87
2019-01-23T09:18:07.878Z,100113.03
2019-01-23T09:20:37.487Z,100113.41
2019-01-23T09:23:06.998Z,100115.47
2019-01-23T09:25:36.469Z,100118.22
2019-01-23T09:28:06.016Z,100119.23
2019-01-23T09:30:43.392Z,100114.05
2019-01-23T09:33:38.484Z,100117.83
2019-01-23T09:36:33.047Z,100110.85
2019-01-23T09:39:27.454Z,100119.91
2019-01-23T09:42:10.816Z,100112.45
2019-01-23T09:44:59.405Z,100117.45
2019-01-23T09:47:42.302Z,100118.08
2019-01-23T09:50:37.396Z,100119.44
2019-01-23T09:53:32.301Z,100126.88
2019-01-23T09:56:01.870Z,100128.31
2019-01-23T09:58:31.376Z,100127.94
2019-01-23T10:01:01.016Z,100125.53
2019-01-23T10:03:30.532Z,100130.55
2019-01-23T10:06:00.090Z,100131.55
2019-01-23T10:08:29.586Z,100128.81
2019-01-23T10:10:59.131Z,100126.94
2019-01-23T10:13:28.628Z,100135.30
2019-01-23T10:15:58.271Z,100128.84
2019-01-23T10:18:28.314Z,100127.39
2019-01-23T10:20:57.826Z,100133.34
2019-01-23T10:23:27.278Z,100130.36
2019-01-23T10:25:56.823Z,100133.86
2019-01-23T10:28:26.920Z,100132.33
2019-01-23T10:30:56.570Z,100124.94
2019-01-23T10:33:26.204Z,100124.30
2019-01-23T10:35:55.734Z,100122.95
2019-01-23T10:38:25.248Z,100129.78
2019-01-23T10:40:55.014Z,100128.53
2019-01-23T10:43:24.517Z,100122.66
2019-01-23T10:45:53.983Z,100123.67
2019-01-23T10:48:23.543Z,100125.22
2019-01-23T10:50:53.055Z,100125.80
2019-01-23T10:53:22.570Z,100125.09
2019-01-23T10:55:52.065Z,100124.17
2019-01-23T10:58:21.547Z,100124.46
2019-01-23T11:00:51.050Z,100119.03
2019-01-23T11:03:20.692Z,100124.97
2019-01-23T11:05:50.198Z,100125.69
2019-01-23T11:08:19.679Z,100126.22
2019-01-23T11:10:49.209Z,100125.69
2019-01-23T11:13:18.722Z,100115.80
2019-01-23T11:15:48.268Z,100119.28
2019-01-23T11:18:17.810Z,100114.70
2019-01-23T11:20:47.406Z,100116.43
2019-01-23T11:23:16.996Z,100117.64
2019-01-23T11:25:46.884Z,100116.75
2019-01-23T11:28:16.372Z,100116.23
2019-01-23T11:30:45.872Z,100119.14
2019-01-23T11:33:15.401Z,100118.55
2019-01-23T11:35:45.326Z,100119.18
2019-01-23T11:38:14.904Z,100114.47
2019-01-23T11:40:44.540Z,100113.82
2019-01-23T11:43:14.048Z,100117.28
2019-01-23T11:45:43.619Z,100112.08
2019-01-23T11:48:13.462Z,100103.30
2019-01-23T11:50:43.226Z,100110.69
2019-01-23T11:53:12.772Z,100112.72
2019-01-23T11:55:42.322Z,100111.81
2019-01-23T11:58:11.781Z,100104.97
2019-01-23T12:00:41.324Z,100100.86
2019-01-23T12:03:10.877Z,100098.86
2019-01-23T12:05:40.404Z,100097.02
2019-01-23T12:08:10.282Z,100094.69
2019-01-23T12:10:40.122Z,100097.70
2019-01-23T12:13:09.614Z,100101.94
2019-01-23T12:15:40.932Z,100094.89
2019-01-23T12:18:10.369Z,100096.18
2019-01-23T12:20:40.221Z,100095.44
2019-01-23T12:23:09.689Z,100102.22
2019-01-23T12:25:39.207Z,100105.66
2019-01-23T12:28:08.687Z,100105.58
2019-01-23T12:30:38.707Z,100100.61
2019-01-23T12:33:08.444Z,100105.65
2019-01-23T12:35:37.984Z,100111.75
2019-01-23T12:38:07.470Z,100113.77
2019-01-23T12:40:37.009Z,100103.64
2019-01-23T12:43:06.526Z,100107.56
2019-01-23T12:45:36.018Z,100102.70
2019-01-23T12:48:05.658Z,100099.34
2019-01-23T12:50:35.285Z,100097.50
2019-01-23T12:53:04.841Z,100102.48
2019-01-23T12:55:34.547Z,100103.08
2019-01-23T12:58:04.087Z,100099.42
2019-01-23T13:00:33.611Z,100109.10
2019-01-23T13:03:03.211Z,100106.33
2019-01-23T13:05:32.816Z,100113.01
2019-01-23T13:08:02.261Z,100109.14
2019-01-23T13:10:31.777Z,100105.27
2019-01-23T13:13:01.339Z,100103.81
2019-01-23T13:15:31.039Z,100113.77
2019-01-23T13:18:00.806Z,100112.41
2019-01-23T13:20:30.296Z,100119.05
2019-01-23T13:22:59.864Z,100114.73
2019-01-23T13:25:30.460Z,100110.73
2019-01-23T13:28:02.466Z,100109.22
2019-01-23T13:30:31.933Z,100106.94
2019-01-23T13:33:02.193Z,100110.89
2019-01-23T13:35:36.133Z,100112.55
2019-01-23T13:38:10.375Z,100112.67
2019-01-23T13:40:39.948Z,100116.80
2019-01-23T13:43:09.515Z,100114.47
2019-01-23T13:45:39.115Z,100111.55
2019-01-23T13:48:09.381Z,100119.45
2019-01-23T13:50:38.886Z,100120.04
2019-01-23T13:53:09.069Z,100122.35
2019-01-23T13:55:38.535Z,100117.56
2019-01-23T13:58:08.190Z,100121.63
2019-01-23T14:00:42.823Z,100116.98
2019-01-23T14:03:12.388Z,100120.16
2019-01-23T14:05:41.890Z,100122.65
2019-01-23T14:08:11.936Z,100125.14
2019-01-23T14:10:41.457Z,100124.00
2019-01-23T14:13:10.920Z,100121.49
2019-01-23T14:15:41.400Z,100127.03
2019-01-23T14:18:10.893Z,100128.20
2019-01-23T14:20:40.443Z,100127.25
2019-01-23T14:23:09.968Z,100134.54
2019-01-23T14:25:39.488Z,100136.53
2019-01-23T14:28:09.057Z,100131.27
2019-01-23T14:30:44.935Z,100142.31
2019-01-23T14:33:14.844Z,100135.87
2019-01-23T14:35:44.358Z,100143.84
2019-01-23T14:38:14.010Z,100139.79
2019-01-23T14:40:43.493Z,100137.38
2019-01-23T14:43:12.973Z,100139.84
2019-01-23T14:45:42.495Z,100153.08
2019-01-23T14:48:11.980Z,100153.98
2019-01-23T14:50:41.475Z,100159.97
2019-01-23T14:53:11.052Z,100156.05
2019-01-23T14:55:40.545Z,100159.50
2019-01-23T14:58:10.094Z,100156.86
2019-01-23T15:00:39.720Z,100155.36
2019-01-23T15:03:09.229Z,100158.80
2019-01-23T15:05:38.716Z,100161.12
2019-01-23T15:08:08.313Z,100161.16
2019-01-23T15:10:37.820Z,100166.08
2019-01-23T15:13:07.743Z,100165.45
2019-01-23T15:15:37.662Z,100165.95
2019-01-23T15:18:07.475Z,100168.23
2019-01-23T15:20:38.909Z,100176.13
2019-01-23T15:23:08.435Z,100174.59
2019-01-23T15:25:37.949Z,100170.07
2019-01-23T15:28:07.506Z,100180.95
2019-01-23T15:30:37.112Z,100179.75
2019-01-23T15:33:06.593Z,100188.73
2019-01-23T15:35:36.171Z,100186.66
2019-01-23T15:38:05.977Z,100186.70
2019-01-23T15:40:36.573Z,100194.19
2019-01-23T15:43:06.172Z,100195.22
2019-01-23T15:45:35.877Z,100193.10
2019-01-23T15:48:05.514Z,100197.16
2019-01-23T15:50:36.826Z,100205.70
2019-01-23T15:53:07.028Z,100209.65
2019-01-23T15:55:36.600Z,100216.19
2019-01-23T15:58:06.161Z,100217.00
2019-01-23T16:00:36.790Z,100220.41
2019-01-23T16:03:06.355Z,100228.48
2019-01-23T16:05:36.308Z,100220.14
2019-01-23T16:08:06.334Z,100219.60
2019-01-23T16:10:35.848Z,100229.23
2019-01-23T16:13:05.406Z,100224.55
2019-01-23T16:15:35.026Z,100224.02
2019-01-23T16:18:04.586Z,100234.92
2019-01-23T16:20:34.090Z,100233.75
2019-01-23T16:23:04.052Z,100238.27
2019-01-23T16:25:34.025Z,100246.35
2019-01-23T16:28:03.488Z,100251.88
2019-01-23T16:30:36.584Z,100255.18
2019-01-23T16:33:06.808Z,100260.92
2019-01-23T16:35:38.798Z,100263.00
2019-01-23T16:38:09.410Z,100265.02
2019-01-23T16:40:38.888Z,100265.95
2019-01-23T16:43:08.451Z,100262.82
2019-01-23T16:45:37.946Z,100264.06
2019-01-23T16:48:07.589Z,100269.35
2019-01-23T16:50:37.181Z,100271.94
2019-01-23T16:53:06.731Z,100269.83
2019-01-23T16:55:36.375Z,100271.63
2019-01-23T16:58:07.515Z,100272.59
2019-01-23T17:00:37.434Z,100273.37
2019-01-23T17:03:07.650Z,100276.61
2019-01-23T17:05:38.906Z,100272.79
2019-01-23T17:08:09.642Z,100281.71
2019-01-23T17:10:40.883Z,100273.64
2019-01-23T17:13:11.309Z,100279.05
2019-01-23T17:15:41.607Z,100276.61
2019-01-23T17:18:11.161Z,100277.52
2019-01-23T17:20:44.389Z,100287.40
2019-01-23T17:23:13.938Z,100290.56
2019-01-23T17:25:44.139Z,100290.16
2019-01-23T17:28:14.823Z,100290.36
2019-01-23T17:30:44.699Z,100288.72
2019-01-23T17:33:14.188Z,100288.36
2019-01-23T17:35:44.122Z,100291.55
2019-01-23T17:38:13.646Z,100296.28
2019-01-23T17:40:43.151Z,100299.69
2019-01-23T17:43:13.933Z,100301.70
2019-01-23T17:45:43.530Z,100301.95
2019-01-23T17:48:17.731Z,100310.09
2019-01-23T17:50:47.367Z,100310.19
2019-01-23T17:53:17.453Z,100315.59
2019-01-23T17:55:46.968Z,100323.99
2019-01-23T17:58:16.888Z,100321.50
2019-01-23T18:00:50.680Z,100331.52
2019-01-23T18:03:20.289Z,100331.58
2019-01-23T18:05:51.237Z,100332.72
2019-01-23T18:08:21.642Z,100335.81
2019-01-23T18:10:51.176Z,100334.11
2019-01-23T18:13:20.686Z,100336.66
2019-01-23T18:15:50.250Z,100341.33
2019-01-23T18:18:20.385Z,100343.36
2019-01-23T18:20:49.851Z,100348.69
2019-01-23T18:23:19.370Z,100348.03
2019-01-23T18:25:48.853Z,100348.13
2019-01-23T18:28:18.355Z,100357.78
2019-01-23T18:30:52.733Z,100359.97
2019-01-23T18:33:32.147Z,100357.56
2019-01-23T18:36:35.178Z,100357.14
2019-01-23T18:39:12.064Z,100360.88
2019-01-23T18:41:48.957Z,100356.45
2019-01-23T18:44:38.840Z,100361.25
2019-01-23T18:47:37.472Z,100364.41
2019-01-23T18:50:30.895Z,100372.19
2019-01-23T18:53:00.915Z,100379.42
2019-01-23T18:55:30.417Z,100377.43
2019-01-23T18:58:00.428Z,100376.28
2019-01-23T19:00:30.029Z,100386.03
2019-01-23T19:02:59.521Z,100376.25
2019-01-23T19:05:29.789Z,100385.25
2019-01-23T19:07:59.737Z,100380.34
2019-01-23T19:10:29.519Z,100385.25
2019-01-23T19:12:59.409Z,100384.59
2019-01-23T19:15:29.533Z,100389.64
2019-01-23T19:17:59.210Z,100395.88
2019-01-23T19:20:29.220Z,100390.74
2019-01-23T19:22:58.758Z,100402.83
2019-01-23T19:25:28.437Z,100395.13
2019-01-23T19:27:58.430Z,100399.39
2019-01-23T19:30:28.355Z,100399.23
2019-01-23T19:32:57.836Z,100405.20
2019-01-23T19:35:27.415Z,100403.50
2019-01-23T19:37:56.962Z,100407.48
2019-01-23T19:40:26.470Z,100406.16
2019-01-23T19:42:56.153Z,100415.44
2019-01-23T19:45:25.797Z,100414.77
2019-01-23T19:47:55.279Z,100421.39
2019-01-23T19:50:24.788Z,100420.83
2019-01-23T19:52:54.397Z,100427.67
2019-01-23T19:55:23.957Z,100424.58
2019-01-23T19:57:53.527Z,100439.83
2019-01-23T20:00:23.582Z,100437.01
2019-01-23T20:02:53.109Z,100440.86
2019-01-23T20:05:25.978Z,100440.01
2019-01-23T20:07:56.173Z,100448.40
2019-01-23T20:10:26.215Z,100454.63
2019-01-23T20:12:55.829Z,100455.74
2019-01-23T20:15:25.475Z,100464.46
2019-01-23T20:17:56.614Z,100468.35
2019-01-23T20:20:26.122Z,100466.53
2019-01-23T20:22:55.718Z,100471.44
2019-01-23T20:25:27.135Z,100472.98
2019-01-23T20:27:57.275Z,100480.56
2019-01-23T20:30:32.047Z,100482.08
2019-01-23T20:33:01.635Z,100483.45
2019-01-23T20:35:31.244Z,100484.11
2019-01-23T20:38:02.098Z,100482.52
2019-01-23T20:40:31.670Z,100490.81
2019-01-23T20:43:01.188Z,100495.78
2019-01-23T20:45:30.847Z,100495.33
2019-01-23T20:48:00.374Z,100497.13
2019-01-23T20:50:31.802Z,100506.44
2019-01-23T20:53:01.717Z,100508.19
2019-01-23T20:55:31.361Z,100524.58
2019-01-23T20:58:00.923Z,100532.16
2019-01-23T21:00:34.340Z,100525.39
2019-01-23T21:03:04.330Z,100531.30
2019-01-23T21:05:33.905Z,100541.03
2019-01-23T21:08:03.869Z,100542.82
2019-01-23T21:10:33.370Z,100542.84
2019-01-23T21:13:02.997Z,100541.71
2019-01-23T21:15:32.602Z,100546.67
2019-01-23T21:18:02.109Z,100541.30
2019-01-23T21:20:32.346Z,100545.87
2019-01-23T21:23:01.859Z,100561.23
2019-01-23T21:25:31.382Z,100568.05
2019-01-23T21:28:01.000Z,100556.91
2019-01-23T21:30:30.606Z,100568.11
2019-01-23T21:33:00.114Z,100567.20
2019-01-23T21:35:29.613Z,100572.88
2019-01-23T21:37:59.151Z,100576.52
2019-01-23T21:40:31.462Z,100562.25
2019-01-23T21:43:02.805Z,100575.47
2019-01-23T21:45:33.122Z,100587.09
2019-01-23T21:48:02.644Z,100574.03
2019-01-23T21:50:32.163Z,100578.75
2019-01-23T21:53:01.681Z,100582.00
2019-01-23T21:55:31.179Z,100585.99
2019-01-23T21:58:00.690Z,100593.36
2019-01-23T22:00:37.927Z,100595.95
2019-01-23T22:03:10.248Z,100595.58
2019-01-23T22:05:39.951Z,100598.59
2019-01-23T22:08:09.816Z,100595.42
2019-01-23T22:10:39.413Z,100594.50
2019-01-23T22:13:08.945Z,100601.29
2019-01-23T22:15:38.954Z,100604.27
2019-01-23T22:18:08.642Z,100606.75
2019-01-23T22:20:38.289Z,100601.22
2019-01-23T22:23:10.661Z,100608.39
2019-01-23T22:25:40.139Z,100616.24
2019-01-23T22:28:09.765Z,100615.56
2019-01-23T22:30:58.714Z,100623.96
2019-01-23T22:33:28.200Z,100620.91
2019-01-23T22:35:57.667Z,100629.23
2019-01-23T22:38:27.241Z,100630.94
2019-01-23T22:40:56.757Z,100642.02
2019-01-23T22:43:26.238Z,100643.03
2019-01-23T22:45:55.728Z,100646.45
2019-01-23T22:48:25.218Z,100644.18
2019-01-23T22:50:54.881Z,100643.81
2019-01-23T22:53:25.968Z,100647.30
2019-01-23T22:55:55.476Z,100646.30
2019-01-23T22:58:24.968Z,100653.84
2019-01-23T23:01:01.960Z,100651.20
2019-01-23T23:03:31.796Z,100657.83
2019-01-23T23:06:01.255Z,100645.30
2019-01-23T23:08:31.332Z,100649.44
2019-01-23T23:11:20.153Z,100651.31
2019-01-23T23:13:49.696Z,100651.80
2019-01-23T23:16:19.278Z,100660.44
2019-01-23T23:18:48.779Z,100667.66
2019-01-23T23:21:18.713Z,100669.52
2019-01-23T23:23:48.181Z,100673.64
2019-01-23T23:26:17.689Z,100670.22
2019-01-23T23:28:47.378Z,100671.95
2019-01-23T23:31:16.871Z,100680.05
2019-01-23T23:33:46.384Z,100681.61
2019-01-23T23:36:15.993Z,100678.73
2019-01-23T23:38:45.492Z,100681.84
2019-01-23T23:41:14.969Z,100690.81
2019-01-23T23:43:44.501Z,100688.55
2019-01-23T23:46:13.999Z,100695.77
2019-01-23T23:48:43.552Z,100706.14
2019-01-23T23:51:13.147Z,100705.11
2019-01-23T23:53:42.653Z,100704.78
2019-01-23T23:56:12.180Z,100701.89
2019-01-23T23:58:41.694Z,100700.81
